Time;durP1;ratioP1;P1;durP2;ratioP2;P2;SDS_P1;SDS_P2;PMS_P1;PMS_P2;Temp;Humidity;BMP_temperature;BMP_pressure;BME280_temperature;BME280_humidity;BME280_pressure;Samples;Min_cycle;Max_cycle;Signal;HPM_P1;HPM_P2
2022/12/26 00:01:21;;;;;;;;;;;;;;;8.55;100.00;100995.81;4995724;28;19910;-73
2022/12/26 00:03:46;;;;;;;;;;;;;;;8.52;100.00;101006.22;4990792;28;19925;-73
2022/12/26 00:06:16;;;;;;;;;;;;;;;8.49;100.00;100999.34;4993830;28;20004;-73
2022/12/26 00:08:42;;;;;;;;;;;;;;;8.48;100.00;101009.69;4995315;28;19933;-73
2022/12/26 00:11:07;;;;;;;;;;;;;;;8.47;100.00;101006.25;4995516;28;19910;-73
2022/12/26 00:13:33;;;;;;;;;;;;;;;8.49;100.00;101001.94;4995541;28;19917;-73
2022/12/26 00:15:58;;;;;;;;;;;;;;;8.51;100.00;101007.09;4995325;28;20376;-73
2022/12/26 00:18:23;;;;;;;;;;;;;;;8.54;100.00;101012.19;4976967;28;19924;-73
2022/12/26 00:20:48;;;;;;;;;;;;;;;8.58;100.00;101022.50;4994265;28;19922;-73
2022/12/26 00:23:14;;;;;;;;;;;;;;;8.61;100.00;101019.84;4993749;28;19917;-73
2022/12/26 00:25:39;;;;;;;;;;;;;;;8.65;100.00;101020.69;4995796;28;19918;-73
2022/12/26 00:28:04;;;;;;;;;;;;;;;8.66;100.00;101023.25;4994957;28;19914;-73
2022/12/26 00:30:29;;;;;;;;;;;;;;;8.68;100.00;101033.53;4994637;28;19921;-73
2022/12/26 00:32:55;;;;;;;;;;;;;;;8.69;100.00;101043.88;4993817;28;19913;-73
2022/12/26 00:35:20;;;;;;;;;;;;;;;8.70;100.00;101047.31;4993019;28;20311;-73
2022/12/26 00:37:45;;;;;;;;;;;;;;;8.73;100.00;101064.53;4993776;28;19913;-73
2022/12/26 00:40:10;;;;;;;;;;;;;;;8.73;100.00;101058.44;4993590;28;19921;-73
2022/12/26 00:42:36;;;;;;;;;;;;;;;8.76;100.00;101067.91;4990842;28;19924;-73
2022/12/26 00:45:01;;;;;;;;;;;;;;;8.77;100.00;101061.00;4994309;28;20000;-73
2022/12/26 00:47:26;;;;;;;;;;;;;;;8.77;100.00;101050.69;4977143;28;19910;-73
2022/12/26 00:49:51;;;;;;;;;;;;;;;8.77;100.00;101048.09;4994647;28;20420;-73
2022/12/26 00:52:16;;;;;;;;;;;;;;;8.77;100.00;101056.69;4992911;28;19984;-73
2022/12/26 00:54:42;;;;;;;;;;;;;;;8.77;100.00;101061.00;4994747;28;19914;-73
2022/12/26 00:57:07;;;;;;;;;;;;;;;8.78;100.00;101053.25;4994602;28;20037;-73
2022/12/26 00:59:32;;;;;;;;;;;;;;;8.78;100.00;101067.91;4991874;28;19913;-69
2022/12/26 01:01:57;;;;;;;;;;;;;;;8.78;100.00;101065.31;4993170;28;19922;-68
2022/12/26 01:04:22;;;;;;;;;;;;;;;8.78;100.00;101062.72;4995121;28;19933;-69
2022/12/26 01:06:48;;;;;;;;;;;;;;;8.78;100.00;101078.22;4987050;28;20016;-69
2022/12/26 01:09:14;;;;;;;;;;;;;;;8.77;100.00;101053.25;4991063;28;19932;-68
2022/12/26 01:11:39;;;;;;;;;;;;;;;8.78;100.00;101049.81;4995703;28;19979;-69
2022/12/26 01:14:05;;;;;;;;;;;;;;;8.73;100.00;101053.28;4993772;28;19993;-68
2022/12/26 01:16:31;;;;;;;;;;;;;;;8.71;100.00;101067.13;4994214;28;20127;-69
2022/12/26 01:18:56;;;;;;;;;;;;;;;8.63;100.00;101072.38;4994305;28;19918;-69
2022/12/26 01:21:21;;;;;;;;;;;;;;;8.61;100.00;101070.66;4994134;28;19914;-69
2022/12/26 01:23:47;;;;;;;;;;;;;;;8.60;100.00;101084.47;4994021;28;19964;-68
2022/12/26 01:26:12;;;;;;;;;;;;;;;8.60;100.00;101081.88;4994980;28;19916;-68
2022/12/26 01:28:37;;;;;;;;;;;;;;;8.62;100.00;101075.84;4984618;28;20008;-68
2022/12/26 01:31:05;;;;;;;;;;;;;;;8.64;100.00;101066.34;4994119;28;20001;-69
2022/12/26 01:33:30;;;;;;;;;;;;;;;8.65;100.00;101073.22;4994750;28;20391;-69
2022/12/26 01:35:56;;;;;;;;;;;;;;;8.65;100.00;101073.22;4982902;28;19914;-68
2022/12/26 01:38:21;;;;;;;;;;;;;;;8.64;100.00;101079.25;4976062;28;20000;-68
2022/12/26 01:40:47;;;;;;;;;;;;;;;8.61;100.00;101061.19;4994645;28;19959;-68
2022/12/26 01:43:13;;;;;;;;;;;;;;;8.61;100.00;101062.91;4993603;28;19953;-68
2022/12/26 01:45:39;;;;;;;;;;;;;;;8.56;100.00;101069.88;4994725;28;19920;-69
2022/12/26 01:48:24;;;;;;;;;;;;;;;8.52;100.00;101074.25;4994696;28;19909;-68
2022/12/26 01:50:59;;;;;;;;;;;;;;;8.50;100.00;101070.81;4991895;28;20287;-68
2022/12/26 01:53:42;;;;;;;;;;;;;;;8.48;100.00;101082.03;4993820;28;19922;-68
2022/12/26 01:56:10;;;;;;;;;;;;;;;8.47;100.00;101073.41;4986569;28;19906;-68
2022/12/26 01:58:38;;;;;;;;;;;;;;;8.48;100.00;101072.56;4986870;28;19914;-68
2022/12/26 02:01:05;;;;;;;;;;;;;;;8.50;100.00;101077.72;4976345;28;19910;-68
2022/12/26 02:06:15;;;;;;;;;;;;;;;8.51;100.00;101072.53;4991875;28;19964;-68
2022/12/26 02:08:40;;;;;;;;;;;;;;;8.52;100.00;101071.66;4976526;28;19922;-68
2022/12/26 02:11:09;;;;;;;;;;;;;;;8.53;100.00;101073.34;4993977;28;19948;-68
2022/12/26 02:13:35;;;;;;;;;;;;;;;8.53;100.00;101082.84;4992623;28;19914;-68
2022/12/26 02:16:01;;;;;;;;;;;;;;;8.52;100.00;101082.00;4992646;28;19941;-68
2022/12/26 02:18:26;;;;;;;;;;;;;;;8.52;100.00;101082.00;4995031;28;19910;-68
2022/12/26 02:21:24;;;;;;;;;;;;;;;8.54;100.00;101081.94;4987044;28;19913;-68
2022/12/26 02:24:00;;;;;;;;;;;;;;;8.55;100.00;101081.94;4969058;28;19917;-69
2022/12/26 02:26:28;;;;;;;;;;;;;;;8.55;100.00;101087.09;4994488;28;19913;-68
2022/12/26 02:29:13;;;;;;;;;;;;;;;8.55;100.00;101086.25;4981970;28;19925;-68
2022/12/26 02:31:44;;;;;;;;;;;;;;;8.54;100.00;101089.69;4948568;28;20336;-68
2022/12/26 02:34:21;;;;;;;;;;;;;;;8.52;100.00;101084.56;4993884;28;20323;-68
2022/12/26 02:36:57;;;;;;;;;;;;;;;8.50;100.00;101080.28;4992933;28;19914;-68
2022/12/26 02:39:29;;;;;;;;;;;;;;;8.48;100.00;101069.97;4984289;28;19914;-68
2022/12/26 02:42:20;;;;;;;;;;;;;;;8.48;100.00;101074.28;4980806;28;20290;-69
2022/12/26 02:47:44;;;;;;;;;;;;;;;8.44;100.00;101081.22;4999396;28;19956;-69
2022/12/26 03:13:10;;;;;;;;;;;;;;;8.50;100.00;101078.56;4996116;28;20052;-73
2022/12/26 03:18:24;;;;;;;;;;;;;;;8.47;100.00;101082.91;4994558;28;20044;-73
2022/12/26 03:20:49;;;;;;;;;;;;;;;8.47;100.00;101077.72;4994056;28;20391;-73
2022/12/26 03:23:16;;;;;;;;;;;;;;;8.45;100.00;101095.84;4995409;28;19913;-73
2022/12/26 03:28:33;;;;;;;;;;;;;;;8.45;100.00;101088.09;4995067;28;19920;-68
2022/12/26 03:31:00;;;;;;;;;;;;;;;8.44;100.00;101078.63;4996147;28;19910;-68
2022/12/26 03:36:32;;;;;;;;;;;;;;;8.44;100.00;101063.13;4995295;28;19933;-68
2022/12/26 03:39:06;;;;;;;;;;;;;;;8.43;100.00;101053.66;4988433;28;19910;-68
2022/12/26 04:44:09;;;;;;;;;;;;;;;7.76;100.00;101121.41;4994602;28;20123;-68
2022/12/26 04:46:45;;;;;;;;;;;;;;;7.74;100.00;101120.56;4978205;28;19915;-68
2022/12/26 04:51:56;;;;;;;;;;;;;;;7.72;100.00;101106.81;4995265;28;19960;-68
2022/12/26 04:54:24;;;;;;;;;;;;;;;7.70;100.00;101106.00;4995328;28;20368;-68
2022/12/26 04:56:49;;;;;;;;;;;;;;;7.71;100.00;101099.09;4994872;28;20360;-68
2022/12/26 04:59:15;;;;;;;;;;;;;;;7.69;100.00;101100.84;4987591;28;19938;-72
2022/12/26 05:09:59;;;;;;;;;;;;;;;7.59;100.00;101106.91;4994055;28;20288;-73
2022/12/26 05:12:24;;;;;;;;;;;;;;;7.58;100.00;101100.91;4992835;28;20368;-73
2022/12/26 05:14:50;;;;;;;;;;;;;;;7.57;100.00;101101.78;4992918;28;20007;-72
2022/12/26 05:30:58;;;;;;;;;;;;;;;7.47;100.00;101119.03;4985478;28;19979;-68
2022/12/26 05:36:07;;;;;;;;;;;;;;;7.43;100.00;101122.53;4995218;28;19920;-68
2022/12/26 05:38:33;;;;;;;;;;;;;;;7.42;100.00;101117.38;4977502;28;19941;-67
2022/12/26 05:40:58;;;;;;;;;;;;;;;7.42;100.00;101109.63;4978069;28;19913;-68
2022/12/26 05:43:23;;;;;;;;;;;;;;;7.41;100.00;101106.19;4992284;28;19917;-67
2022/12/26 05:45:48;;;;;;;;;;;;;;;7.41;100.00;101100.19;4995136;28;19936;-68
2022/12/26 05:48:14;;;;;;;;;;;;;;;7.38;100.00;101092.44;4980997;28;20258;-68
2022/12/26 05:50:39;;;;;;;;;;;;;;;7.36;100.00;101086.47;4977180;28;19968;-68
2022/12/26 05:53:04;;;;;;;;;;;;;;;7.32;100.00;101077.88;4994410;28;19989;-68
2022/12/26 05:55:29;;;;;;;;;;;;;;;7.31;100.00;101073.59;4993521;28;19917;-68
2022/12/26 05:57:55;;;;;;;;;;;;;;;7.31;100.00;101075.31;4993916;28;20336;-68
2022/12/26 06:00:20;;;;;;;;;;;;;;;7.27;100.00;101076.19;4994212;28;20300;-68
2022/12/26 06:02:45;;;;;;;;;;;;;;;7.22;100.00;101071.09;4994226;28;19925;-68
2022/12/26 06:05:11;;;;;;;;;;;;;;;7.20;100.00;101079.69;4989294;28;19922;-68
2022/12/26 06:07:36;;;;;;;;;;;;;;;7.20;100.00;101084.84;4993784;28;19933;-68
2022/12/26 06:10:01;;;;;;;;;;;;;;;7.23;100.00;101095.16;4991371;28;20033;-68
2022/12/26 06:12:27;;;;;;;;;;;;;;;7.29;100.00;101088.22;4992139;28;19914;-68
2022/12/26 06:14:52;;;;;;;;;;;;;;;7.35;100.00;101095.91;4993173;28;20048;-68
2022/12/26 06:17:17;;;;;;;;;;;;;;;7.35;100.00;101090.75;4994022;28;20040;-68
2022/12/26 06:19:42;;;;;;;;;;;;;;;7.33;100.00;101096.78;4994584;28;19914;-68
2022/12/26 06:22:07;;;;;;;;;;;;;;;7.30;100.00;101094.25;4993860;28;19917;-68
2022/12/26 06:24:33;;;;;;;;;;;;;;;7.38;100.00;101103.63;4992620;28;19965;-68
2022/12/26 06:26:58;;;;;;;;;;;;;;;7.37;100.00;101104.47;4992845;28;19914;-68
2022/12/26 06:29:23;;;;;;;;;;;;;;;7.38;100.00;101098.47;4989544;28;19914;-72
2022/12/26 06:31:48;;;;;;;;;;;;;;;7.38;100.00;101107.91;4991916;28;20372;-72
2022/12/26 06:34:14;;;;;;;;;;;;;;;7.38;100.00;101113.06;4990340;28;20376;-72
2022/12/26 06:36:39;;;;;;;;;;;;;;;7.38;100.00;101118.22;4990852;28;20109;-72
2022/12/26 06:39:04;;;;;;;;;;;;;;;7.37;100.00;101119.94;4989585;28;19918;-72
2022/12/26 06:41:29;;;;;;;;;;;;;;;7.38;100.00;101128.53;4991441;28;20236;-72
2022/12/26 06:43:54;;;;;;;;;;;;;;;7.41;100.00;101124.25;4991185;28;19918;-72
2022/12/26 06:46:21;;;;;;;;;;;;;;;7.39;100.00;101127.69;4991467;28;19917;-72
2022/12/26 06:48:46;;;;;;;;;;;;;;;7.36;100.00;101138.03;4992190;28;19910;-72
2022/12/26 06:51:13;;;;;;;;;;;;;;;7.35;100.00;101144.06;4989855;28;19921;-72
2022/12/26 06:53:39;;;;;;;;;;;;;;;7.34;100.00;101145.78;4990778;28;20399;-72
2022/12/26 06:56:09;;;;;;;;;;;;;;;7.35;100.00;101129.44;4991206;28;20008;-72
2022/12/26 06:58:34;;;;;;;;;;;;;;;7.32;100.00;101123.44;4984175;28;20112;-68
2022/12/26 07:01:03;;;;;;;;;;;;;;;7.32;100.00;101129.44;4992201;28;19917;-68
2022/12/26 07:03:28;;;;;;;;;;;;;;;7.31;100.00;101121.72;4981106;28;20409;-67
2022/12/26 07:05:54;;;;;;;;;;;;;;;7.25;100.00;101117.44;4992762;28;20392;-68
2022/12/26 07:08:20;;;;;;;;;;;;;;;7.21;100.00;101122.66;4992155;28;19946;-68
2022/12/26 07:10:45;;;;;;;;;;;;;;;7.20;100.00;101123.50;4992449;28;19914;-68
2022/12/26 07:13:10;;;;;;;;;;;;;;;7.17;100.00;101128.66;4991064;28;19913;-68
2022/12/26 07:15:35;;;;;;;;;;;;;;;7.13;100.00;101135.56;4993042;28;19909;-67
2022/12/26 07:18:00;;;;;;;;;;;;;;;7.09;100.00;101133.88;4985863;28;19964;-68
2022/12/26 07:20:26;;;;;;;;;;;;;;;7.05;100.00;101133.03;4992514;28;20396;-68
2022/12/26 07:22:52;;;;;;;;;;;;;;;7.03;100.00;101139.91;4992787;28;19914;-68
2022/12/26 07:25:18;;;;;;;;;;;;;;;7.02;100.00;101140.78;4991780;28;20438;-68
2022/12/26 07:27:43;;;;;;;;;;;;;;;7.03;100.00;101144.19;4992686;28;19965;-68
2022/12/26 07:30:08;;;;;;;;;;;;;;;7.02;100.00;101147.66;4990060;28;20442;-72
2022/12/26 07:32:34;;;;;;;;;;;;;;;6.99;100.00;101145.94;4984469;28;20305;-72
2022/12/26 07:34:59;;;;;;;;;;;;;;;6.95;100.00;101157.16;4991119;28;19914;-72
2022/12/26 07:37:24;;;;;;;;;;;;;;;6.94;100.00;101158.00;4985266;28;19906;-72
2022/12/26 07:39:49;;;;;;;;;;;;;;;6.93;100.00;101158.84;4972172;28;19910;-72
2022/12/26 07:42:14;;;;;;;;;;;;;;;6.95;100.00;101156.28;4988956;28;19941;-72
2022/12/26 07:44:40;;;;;;;;;;;;;;;6.96;100.00;101160.56;4972864;28;19984;-72
2022/12/26 07:47:06;;;;;;;;;;;;;;;6.95;100.00;101167.44;4988974;28;20373;-72
2022/12/26 07:49:31;;;;;;;;;;;;;;;6.94;100.00;101176.03;4990537;28;20008;-72
2022/12/26 07:51:56;;;;;;;;;;;;;;;6.93;100.00;101174.31;4990670;28;19918;-72
2022/12/26 07:54:22;;;;;;;;;;;;;;;6.93;100.00;101169.16;4985792;28;19925;-72
2022/12/26 07:56:47;;;;;;;;;;;;;;;6.93;100.00;101160.56;4976286;28;20328;-72
2022/12/26 07:59:14;;;;;;;;;;;;;;;6.94;100.00;101152.84;4994660;28;20420;-68
2022/12/26 08:01:39;;;;;;;;;;;;;;;6.91;100.00;101158.00;4990068;28;20521;-68
2022/12/26 08:04:04;;;;;;;;;;;;;;;6.93;100.00;101158.00;4995579;28;19917;-68
2022/12/26 08:06:29;;;;;;;;;;;;;;;6.94;100.00;101164.88;4987651;28;19924;-68
2022/12/26 08:08:55;;;;;;;;;;;;;;;6.96;100.00;101166.56;4992813;28;19984;-68
2022/12/26 08:11:21;;;;;;;;;;;;;;;6.96;100.00;101173.47;4993973;28;20389;-68
2022/12/26 08:13:46;;;;;;;;;;;;;;;6.94;100.00;101176.03;4993355;28;19921;-67
2022/12/26 08:16:13;;;;;;;;;;;;;;;6.96;100.00;101173.47;4995541;28;19914;-68
2022/12/26 08:18:38;;;;;;;;;;;;;;;6.96;100.00;101174.28;4996722;28;20315;-68
2022/12/26 08:21:03;;;;;;;;;;;;;;;6.99;100.00;101176.88;4984148;28;19968;-68
2022/12/26 08:23:29;;;;;;;;;;;;;;;7.03;100.00;101173.41;4995595;28;19972;-68
2022/12/26 08:25:54;;;;;;;;;;;;;;;7.09;100.00;101169.97;4995948;28;19949;-67
2022/12/26 08:28:19;;;;;;;;;;;;;;;7.19;100.00;101171.63;4995967;28;19940;-68
2022/12/26 08:30:45;;;;;;;;;;;;;;;7.22;100.00;101157.88;4996275;28;19921;-68
2022/12/26 08:33:11;;;;;;;;;;;;;;;7.26;100.00;101175.03;4991985;28;19914;-68
2022/12/26 08:35:37;;;;;;;;;;;;;;;7.31;100.00;101168.97;4996521;28;19921;-67
2022/12/26 08:38:02;;;;;;;;;;;;;;;7.41;100.00;101164.66;4994249;28;19916;-67
2022/12/26 08:40:28;;;;;;;;;;;;;;;7.54;100.00;101161.13;4995295;28;20357;-67
2022/12/26 08:42:53;;;;;;;;;;;;;;;7.66;100.00;101176.53;4993826;28;19956;-68
2022/12/26 08:45:18;;;;;;;;;;;;;;;7.80;100.00;101176.44;4995386;28;19960;-67
2022/12/26 08:47:44;;;;;;;;;;;;;;;7.92;100.00;101174.59;4993084;28;19945;-67
2022/12/26 08:50:09;;;;;;;;;;;;;;;8.04;100.00;101180.56;4993872;28;19914;-67
2022/12/26 08:52:34;;;;;;;;;;;;;;;8.08;100.00;101187.41;4993896;28;20403;-67
2022/12/26 08:55:00;;;;;;;;;;;;;;;8.12;100.00;101191.69;4988172;28;19932;-67
2022/12/26 08:57:25;;;;;;;;;;;;;;;8.15;100.00;101181.31;4997315;28;20020;-67
2022/12/26 08:59:50;;;;;;;;;;;;;;;8.17;100.00;101189.91;4991025;28;19918;-68
2022/12/26 09:02:16;;;;;;;;;;;;;;;8.23;100.00;101189.88;4989282;28;19933;-68
2022/12/26 09:04:41;;;;;;;;;;;;;;;8.33;100.00;101202.72;4997954;28;19995;-67
2022/12/26 09:07:06;;;;;;;;;;;;;;;8.38;100.00;101197.53;4979190;28;19995;-67
2022/12/26 09:09:32;;;;;;;;;;;;;;;8.43;100.00;101213.81;4994451;28;20388;-67
2022/12/26 09:11:57;;;;;;;;;;;;;;;8.56;100.00;101204.22;4993148;28;20000;-67
2022/12/26 09:14:22;;;;;;;;;;;;;;;8.67;100.00;101213.56;4993494;28;19913;-67
2022/12/26 09:16:47;;;;;;;;;;;;;;;8.68;100.00;101210.13;4988069;28;20004;-68
2022/12/26 09:19:15;;;;;;;;;;;;;;;8.67;100.00;101205.81;4994113;28;19910;-67
2022/12/26 09:21:41;;;;;;;;;;;;;;;8.62;100.00;101207.59;4976647;28;20308;-67
2022/12/26 09:24:08;;;;;;;;;;;;;;;8.61;100.00;101207.63;4996420;28;20380;-68
2022/12/26 09:26:34;;;;;;;;;;;;;;;8.63;100.00;101211.91;4991987;28;19949;-67
2022/12/26 09:28:59;;;;;;;;;;;;;;;8.66;100.00;101214.47;4993723;28;19914;-67
2022/12/26 09:31:25;;;;;;;;;;;;;;;8.68;100.00;101217.03;4992056;28;20613;-67
2022/12/26 09:33:52;;;;;;;;;;;;;;;8.73;100.00;101215.28;4993534;28;19921;-67
2022/12/26 09:36:19;;;;;;;;;;;;;;;8.76;100.00;101230.72;4989885;28;19914;-67
2022/12/26 09:38:45;;;;;;;;;;;;;;;8.77;100.00;101241.94;4994005;28;19953;-67
2022/12/26 09:41:31;;;;;;;;;;;;;;;8.77;100.00;101242.78;4992939;28;19914;-67
2022/12/26 09:44:09;;;;;;;;;;;;;;;8.83;100.00;101241.88;4991602;28;20384;-67
2022/12/26 09:46:37;;;;;;;;;;;;;;;8.94;100.00;101240.03;4995739;28;19910;-67
2022/12/26 09:49:15;;;;;;;;;;;;;;;9.00;100.00;101243.41;4979397;28;19910;-67
2022/12/26 09:51:42;;;;;;;;;;;;;;;9.01;100.00;101249.41;4993211;28;20153;-68
2022/12/26 09:54:13;;;;;;;;;;;;;;;9.00;100.00;101263.25;4994950;28;19909;-67
2022/12/26 09:56:39;;;;;;;;;;;;;;;8.93;100.00;101256.41;4993932;28;20303;-67
2022/12/26 09:59:06;;;;;;;;;;;;;;;8.90;100.00;101259.88;4995697;28;20365;-67
2022/12/26 10:01:35;;;;;;;;;;;;;;;8.92;100.00;101265.03;4995688;28;20376;-67
2022/12/26 10:04:03;;;;;;;;;;;;;;;8.92;100.00;101257.28;4977418;28;19994;-66
2022/12/26 10:06:37;;;;;;;;;;;;;;;8.92;100.00;101257.28;4994449;28;19918;-67
2022/12/26 10:09:21;;;;;;;;;;;;;;;8.93;100.00;101248.66;4990039;28;20191;-67
2022/12/26 10:12:04;;;;;;;;;;;;;;;8.94;100.00;101266.72;4988248;28;20389;-67
2022/12/26 10:14:48;;;;;;;;;;;;;;;8.91;100.00;101271.09;4993108;28;19913;-68
2022/12/26 10:17:27;;;;;;;;;;;;;;;8.93;100.00;101270.22;4994435;28;19932;-67
2022/12/26 10:20:10;;;;;;;;;;;;;;;9.00;100.00;101276.16;4984253;28;19953;-66
2022/12/26 10:22:42;;;;;;;;;;;;;;;9.10;100.00;101281.22;4979952;28;19922;-66
2022/12/26 10:25:19;;;;;;;;;;;;;;;9.14;100.00;101279.47;4994111;28;19913;-67
2022/12/26 10:27:46;;;;;;;;;;;;;;;9.14;100.00;101282.06;4994006;28;19924;-66
2022/12/26 10:30:19;;;;;;;;;;;;;;;9.16;100.00;101277.69;4994498;28;19913;-66
2022/12/26 10:32:47;;;;;;;;;;;;;;;9.11;100.00;101292.41;4994778;28;20514;-67
2022/12/26 10:35:22;;;;;;;;;;;;;;;9.04;100.00;101314.03;4992449;28;19968;-67
2022/12/26 10:37:50;;;;;;;;;;;;;;;8.96;100.00;101347.72;4993437;28;19921;-68
2022/12/26 10:40:20;;;;;;;;;;;;;;;8.83;100.00;101345.25;4992393;28;19945;-68
2022/12/26 10:42:55;;;;;;;;;;;;;;;8.66;100.00;101350.59;4992090;28;20016;-68
2022/12/26 10:45:27;;;;;;;;;;;;;;;8.56;100.00;101343.75;4990955;28;19941;-67
2022/12/26 10:47:53;;;;;;;;;;;;;;;8.42;100.00;101341.28;4992436;28;20348;-68
2022/12/26 10:50:23;;;;;;;;;;;;;;;8.33;100.00;101351.66;4991159;28;19981;-68
2022/12/26 10:52:49;;;;;;;;;;;;;;;8.25;100.00;101345.66;4977711;28;19913;-67
2022/12/26 10:55:18;;;;;;;;;;;;;;;8.18;100.00;101352.59;4993642;28;19910;-68
2022/12/26 10:57:45;;;;;;;;;;;;;;;8.22;100.00;101354.28;4993322;28;19948;-65
2022/12/26 11:00:17;;;;;;;;;;;;;;;8.24;100.00;101362.03;4993841;28;19932;-65
2022/12/26 11:02:42;;;;;;;;;;;;;;;8.20;100.00;101368.91;4993625;28;19960;-66
2022/12/26 11:05:09;;;;;;;;;;;;;;;8.13;100.00;101377.56;4991838;28;19941;-67
2022/12/26 11:07:54;;;;;;;;;;;;;;;8.05;100.00;101379.31;4993431;28;19997;-67
2022/12/26 11:10:22;;;;;;;;;;;;;;;7.97;100.00;101394.00;4975945;28;20396;-67
2022/12/26 11:12:50;;;;;;;;;;;;;;;7.88;100.00;101389.72;4993288;28;19913;-66
2022/12/26 11:15:36;;;;;;;;;;;;;;;7.87;100.00;101387.16;4993673;28;19914;-67
2022/12/26 11:18:15;;;;;;;;;;;;;;;7.87;100.00;101393.16;4993586;28;19924;-66
2022/12/26 11:20:41;;;;;;;;;;;;;;;7.90;100.00;101406.09;4993311;28;19914;-66
2022/12/26 11:23:26;;;;;;;;;;;;;;;7.90;100.00;101410.38;4987810;28;19937;-66
2022/12/26 11:25:53;;;;;;;;;;;;;;;7.85;100.00;101407.78;4989375;28;19918;-66
2022/12/26 11:28:23;;;;;;;;;;;;;;;7.89;100.00;101413.81;4996381;28;20331;-66
2022/12/26 11:30:48;;;;;;;;;;;;;;;7.93;100.00;101413.78;4997665;28;19913;-66
2022/12/26 11:33:19;;;;;;;;;;;;;;;7.91;100.00;101406.94;4983849;28;20335;-66
2022/12/26 11:35:47;;;;;;;;;;;;;;;7.82;100.00;101417.28;4988970;28;19910;-66
2022/12/26 11:38:33;;;;;;;;;;;;;;;7.72;100.00;101421.59;4996205;28;19971;-66
2022/12/26 11:43:43;;;;;;;;;;;;;;;7.63;100.00;101426.81;4996111;28;19993;-66
2022/12/26 11:46:08;;;;;;;;;;;;;;;7.68;100.00;101425.06;4997314;28;19914;-66
2022/12/26 11:48:34;;;;;;;;;;;;;;;7.73;100.00;101425.03;4987749;28;20000;-66
2022/12/26 11:50:59;;;;;;;;;;;;;;;7.75;100.00;101439.66;4986511;28;19910;-66
2022/12/26 11:53:24;;;;;;;;;;;;;;;7.76;100.00;101441.38;4997174;28;19920;-66
2022/12/26 11:55:57;;;;;;;;;;;;;;;7.76;100.00;101459.47;4996790;28;19920;-66
2022/12/26 11:58:26;;;;;;;;;;;;;;;7.77;100.00;101460.31;4996135;28;19917;-66
2022/12/26 12:00:53;;;;;;;;;;;;;;;7.84;100.00;101457.72;4996774;28;19910;-66
2022/12/26 12:03:29;;;;;;;;;;;;;;;8.01;100.00;101457.66;4996715;28;19920;-66
2022/12/26 12:06:00;;;;;;;;;;;;;;;8.18;100.00;101460.19;4991316;28;20016;-66
2022/12/26 12:08:31;;;;;;;;;;;;;;;8.29;100.00;101461.84;4996579;28;19963;-66
2022/12/26 12:11:09;;;;;;;;;;;;;;;8.28;100.00;101474.75;4996861;28;20332;-66
2022/12/26 12:13:34;;;;;;;;;;;;;;;8.15;100.00;101468.78;4996066;28;19914;-66
2022/12/26 12:16:11;;;;;;;;;;;;;;;8.02;100.00;101467.13;4982510;28;19932;-66
2022/12/26 12:18:48;;;;;;;;;;;;;;;7.94;100.00;101474.88;4995165;28;19910;-66
2022/12/26 12:21:37;;;;;;;;;;;;;;;7.84;100.00;101477.50;4993358;28;20324;-66
2022/12/26 12:24:09;;;;;;;;;;;;;;;7.72;100.00;101473.22;4995283;28;19925;-66
2022/12/26 12:26:40;;;;;;;;;;;;;;;7.60;100.00;101478.41;4994546;28;20368;-66
2022/12/26 12:29:22;;;;;;;;;;;;;;;7.47;100.00;101474.97;4995691;28;19913;-66
2022/12/26 12:31:47;;;;;;;;;;;;;;;7.35;100.00;101474.13;4996426;28;19910;-66
2022/12/26 12:34:15;;;;;;;;;;;;;;;7.27;100.00;101468.09;4982616;28;20323;-66
2022/12/26 12:37:03;;;;;;;;;;;;;;;7.25;100.00;101482.72;4994199;28;19965;-66
2022/12/26 12:39:47;;;;;;;;;;;;;;;7.22;100.00;101490.47;4982771;28;19917;-66
2022/12/26 12:42:42;;;;;;;;;;;;;;;7.20;100.00;101489.59;4992824;28;19910;-66
2022/12/26 12:45:27;;;;;;;;;;;;;;;7.17;100.00;101489.56;4976528;28;21228;-66
2022/12/26 12:48:04;;;;;;;;;;;;;;;7.17;100.00;101492.16;4994089;28;19909;-66
2022/12/26 12:50:46;;;;;;;;;;;;;;;7.12;100.00;101494.75;4992486;28;19921;-66
2022/12/26 12:53:30;;;;;;;;;;;;;;;7.09;100.00;101492.19;4995803;28;20385;-65
2022/12/26 12:56:14;;;;;;;;;;;;;;;6.98;100.00;101502.44;4996034;28;20314;-65
2022/12/26 12:58:48;;;;;;;;;;;;;;;6.93;100.00;101509.31;4995073;28;19921;-66
2022/12/26 13:01:20;;;;;;;;;;;;;;;6.85;100.00;101502.44;4995699;28;19959;-66
2022/12/26 13:03:45;;;;;;;;;;;;;;;6.80;100.00;101512.75;4995005;28;19921;-66
2022/12/26 13:06:14;;;;;;;;;;;;;;;6.74;100.00;101507.56;4994216;28;20009;-65
2022/12/26 13:08:54;;;;;;;;;;;;;;;6.72;100.00;101506.69;4994777;28;19925;-66
2022/12/26 13:11:32;;;;;;;;;;;;;;;6.73;100.00;101516.16;4994846;28;19914;-66
2022/12/26 13:14:00;;;;;;;;;;;;;;;6.73;100.00;101519.59;4994260;28;19910;-65
2022/12/26 13:16:29;;;;;;;;;;;;;;;6.78;100.00;101521.31;4992391;28;19914;-66
2022/12/26 13:19:17;;;;;;;;;;;;;;;6.83;100.00;101522.16;4990786;28;20407;-66
2022/12/26 13:21:42;;;;;;;;;;;;;;;6.84;100.00;101519.59;5006092;28;20818;-65
2022/12/26 13:24:23;;;;;;;;;;;;;;;6.86;100.00;101522.19;4993204;28;19924;-65
2022/12/26 13:26:56;;;;;;;;;;;;;;;6.89;100.00;101520.47;4999306;28;19910;-66
2022/12/26 13:29:34;;;;;;;;;;;;;;;6.85;100.00;101518.75;4983764;28;19914;-66
2022/12/26 13:32:00;;;;;;;;;;;;;;;6.72;100.00;101519.56;4981193;28;19910;-66
2022/12/26 13:34:25;;;;;;;;;;;;;;;6.55;100.00;101524.66;4992837;28;20368;-66
2022/12/26 13:36:52;;;;;;;;;;;;;;;6.47;100.00;101534.09;4994345;28;20004;-65
2022/12/26 13:39:26;;;;;;;;;;;;;;;6.34;100.00;101550.34;4994610;28;20292;-65
2022/12/26 13:44:38;;;;;;;;;;;;;;;6.13;100.00;101553.66;4989599;28;19960;-66
2022/12/26 13:47:03;;;;;;;;;;;;;;;6.08;100.00;101559.63;4990798;28;19945;-65
2022/12/26 13:49:39;;;;;;;;;;;;;;;5.99;100.00;101554.44;4985448;28;19918;-65
2022/12/26 13:52:10;;;;;;;;;;;;;;;5.94;100.00;101562.09;4989401;28;19949;-66
2022/12/26 13:54:37;;;;;;;;;;;;;;;5.89;100.00;101563.78;4991614;28;20360;-65
2022/12/26 13:57:14;;;;;;;;;;;;;;;5.81;100.00;101578.25;5001637;28;19922;-66
2022/12/26 13:59:49;;;;;;;;;;;;;;;5.77;100.00;101582.53;4993589;28;20262;-66
2022/12/26 14:02:20;;;;;;;;;;;;;;;5.68;100.00;101577.31;4972268;28;19910;-65
2022/12/26 14:05:00;;;;;;;;;;;;;;;5.59;100.00;101584.97;4992334;28;20312;-65
2022/12/26 14:07:49;;;;;;;;;;;;;;;5.50;100.00;101583.19;4989316;28;20475;-66
2022/12/26 14:10:18;;;;;;;;;;;;;;;5.43;100.00;101583.97;4993200;28;19988;-65
2022/12/26 14:12:44;;;;;;;;;;;;;;;5.33;100.00;101589.84;4993239;28;19910;-67
2022/12/26 14:15:20;;;;;;;;;;;;;;;5.29;100.00;101589.81;4992062;28;20296;-65
2022/12/26 14:17:45;;;;;;;;;;;;;;;5.20;100.00;101603.44;4989203;28;20361;-65
2022/12/26 14:20:10;;;;;;;;;;;;;;;5.13;100.00;101606.78;4991302;28;20403;-65
2022/12/26 14:22:56;;;;;;;;;;;;;;;5.06;100.00;101605.00;4992594;28;19924;-65
2022/12/26 14:25:37;;;;;;;;;;;;;;;5.00;100.00;101613.50;4952770;28;20363;-65
2022/12/26 14:28:18;;;;;;;;;;;;;;;4.94;100.00;101607.44;4971402;28;20427;-65
2022/12/26 14:31:01;;;;;;;;;;;;;;;4.85;100.00;101610.75;4987419;28;19910;-66
2022/12/26 14:33:26;;;;;;;;;;;;;;;4.78;100.00;101613.25;4986347;28;20363;-65
2022/12/26 14:36:03;;;;;;;;;;;;;;;4.72;100.00;101622.56;4990638;28;20356;-65
2022/12/26 14:38:41;;;;;;;;;;;;;;;4.64;100.00;101629.31;4996999;28;19945;-65
2022/12/26 14:43:09;;;;;;;;;;;;;;;4.57;100.00;101642.91;4992740;28;19928;-65
2022/12/26 14:43:54;;;;;;;;;;;;;;;4.53;100.00;101646.28;4987499;28;20296;-65
2022/12/26 14:46:28;;;;;;;;;;;;;;;4.49;100.00;101643.66;4992699;28;20361;-65
2022/12/26 14:48:56;;;;;;;;;;;;;;;4.45;100.00;101650.44;4986350;28;19922;-65
2022/12/26 14:51:26;;;;;;;;;;;;;;;4.40;100.00;101653.78;4988776;28;19922;-65
2022/12/26 14:54:10;;;;;;;;;;;;;;;4.36;100.00;101660.59;4990191;28;20449;-65
2022/12/26 14:56:36;;;;;;;;;;;;;;;4.33;100.00;101660.53;4986743;28;19913;-65
2022/12/26 14:59:21;;;;;;;;;;;;;;;4.30;100.00;101656.22;4993538;28;20339;-65